createdAt,value
2023-05-10T00:00:23.549Z,13.40
2023-05-10T00:02:50.518Z,13.40
2023-05-10T00:05:17.651Z,13.50
2023-05-10T00:07:47.111Z,13.40
2023-05-10T00:10:14.302Z,13.40
2023-05-10T00:12:41.475Z,13.30
2023-05-10T00:15:09.360Z,13.50
2023-05-10T00:17:36.294Z,12.50
2023-05-10T00:20:03.220Z,13.30
2023-05-10T00:22:30.037Z,13.30
2023-05-10T00:24:56.793Z,13.40
2023-05-10T00:27:23.633Z,13.70
2023-05-10T00:29:50.600Z,13.50
2023-05-10T00:32:17.678Z,13.50
2023-05-10T00:34:44.561Z,13.50
2023-05-10T00:37:11.388Z,13.50
2023-05-10T00:39:38.115Z,13.50
2023-05-10T00:42:05.531Z,13.50
2023-05-10T00:44:32.326Z,13.40
2023-05-10T00:47:00.159Z,13.50
2023-05-10T00:49:27.176Z,13.40
2023-05-10T00:51:54.321Z,13.50
2023-05-10T00:54:21.674Z,13.40
2023-05-10T00:56:50.183Z,13.30
2023-05-10T00:59:18.889Z,13.10
2023-05-10T01:01:49.065Z,13.20
2023-05-10T01:04:16.393Z,13.10
2023-05-10T01:06:44.017Z,13.10
2023-05-10T01:09:12.702Z,13.20
2023-05-10T01:11:40.869Z,13.00
2023-05-10T01:14:08.036Z,12.80
2023-05-10T01:16:39.379Z,12.70
2023-05-10T01:19:20.736Z,12.70
2023-05-10T01:22:29.423Z,12.70
2023-05-10T01:25:20.710Z,12.70
2023-05-10T01:28:17.195Z,14.40
2023-05-10T01:31:01.500Z,12.50
2023-05-10T01:33:47.850Z,12.60
2023-05-10T01:36:32.237Z,12.80
2023-05-10T01:39:12.711Z,13.00
2023-05-10T01:41:43.792Z,12.90
2023-05-10T01:44:40.008Z,12.80
2023-05-10T01:47:18.266Z,12.70
2023-05-10T01:49:56.871Z,12.60
2023-05-10T01:52:41.861Z,12.70
2023-05-10T01:55:17.005Z,12.60
2023-05-10T01:57:45.929Z,12.60
2023-05-10T02:00:14.455Z,12.40
2023-05-10T02:02:45.607Z,12.30
2023-05-10T02:05:14.517Z,12.00
2023-05-10T02:07:43.031Z,12.10
2023-05-10T02:10:11.417Z,12.00
2023-05-10T02:12:42.627Z,11.90
2023-05-10T02:15:11.589Z,11.50
2023-05-10T02:17:39.872Z,11.30
2023-05-10T02:20:08.815Z,11.30
2023-05-10T02:22:36.778Z,11.20
2023-05-10T02:25:05.166Z,11.20
2023-05-10T02:27:32.697Z,11.20
2023-05-10T02:30:00.042Z,11.00
2023-05-10T02:32:28.925Z,11.10
2023-05-10T02:34:56.555Z,10.90
2023-05-10T02:37:25.005Z,11.10
2023-05-10T02:39:54.909Z,11.20
2023-05-10T02:42:27.495Z,11.30
2023-05-10T02:45:10.856Z,11.00
2023-05-10T02:47:37.802Z,11.00
2023-05-10T02:50:05.378Z,11.00
2023-05-10T02:52:44.773Z,11.20
2023-05-10T02:55:16.458Z,11.20
2023-05-10T02:57:57.867Z,11.50
2023-05-10T03:00:26.225Z,11.50
2023-05-10T03:02:53.477Z,11.70
2023-05-10T03:05:20.861Z,11.60
2023-05-10T03:07:48.416Z,11.60
2023-05-10T03:10:15.559Z,11.40
2023-05-10T03:13:25.488Z,11.50
2023-05-10T03:16:04.357Z,11.60
2023-05-10T03:18:59.024Z,11.50
2023-05-10T03:21:30.958Z,11.50
2023-05-10T03:24:03.389Z,11.50
2023-05-10T03:26:30.863Z,11.50
2023-05-10T03:29:00.059Z,11.60
2023-05-10T03:31:26.987Z,11.60
2023-05-10T03:33:54.020Z,11.30
2023-05-10T03:36:21.040Z,11.10
2023-05-10T03:38:48.050Z,10.90
2023-05-10T03:41:15.263Z,10.90
2023-05-10T03:43:42.548Z,11.00
2023-05-10T03:46:09.408Z,11.10
2023-05-10T03:48:36.182Z,11.20
2023-05-10T03:51:03.130Z,11.20
2023-05-10T03:53:29.978Z,11.00
2023-05-10T03:55:56.738Z,11.10
2023-05-10T03:58:23.588Z,11.30
2023-05-10T04:00:50.523Z,11.20
2023-05-10T04:03:17.894Z,10.90
2023-05-10T04:05:44.746Z,10.80
2023-05-10T04:08:11.658Z,11.00
2023-05-10T04:10:38.463Z,11.10
2023-05-10T04:13:05.443Z,11.10
2023-05-10T04:15:32.247Z,11.10
2023-05-10T04:17:59.112Z,11.10
2023-05-10T04:20:26.169Z,11.10
2023-05-10T04:22:52.900Z,11.00
2023-05-10T04:25:19.683Z,10.90
2023-05-10T04:27:46.436Z,10.70
2023-05-10T04:30:13.396Z,11.20
2023-05-10T04:32:40.301Z,10.60
2023-05-10T04:35:07.426Z,10.80
2023-05-10T04:37:34.236Z,10.80
2023-05-10T04:40:01.192Z,10.80
2023-05-10T04:42:28.126Z,10.60
2023-05-10T04:44:54.994Z,10.30
2023-05-10T04:47:21.808Z,10.50
2023-05-10T04:49:48.626Z,10.30
2023-05-10T04:52:17.129Z,10.30
2023-05-10T04:54:43.929Z,10.40
2023-05-10T04:57:10.714Z,10.30
2023-05-10T04:59:38.535Z,10.60
2023-05-10T05:02:06.136Z,10.60
2023-05-10T05:04:33.161Z,10.70
2023-05-10T05:07:00.226Z,11.90
2023-05-10T05:09:27.049Z,10.80
2023-05-10T05:11:53.896Z,10.80
2023-05-10T05:14:21.954Z,10.90
2023-05-10T05:16:48.746Z,10.80
2023-05-10T05:19:15.547Z,10.80
2023-05-10T05:21:42.280Z,10.90
2023-05-10T05:24:09.267Z,10.90
2023-05-10T05:26:36.045Z,11.00
2023-05-10T05:29:02.886Z,11.20
2023-05-10T05:31:30.099Z,11.20
2023-05-10T05:33:57.038Z,11.30
2023-05-10T05:36:23.817Z,11.30
2023-05-10T05:38:50.585Z,11.50
2023-05-10T05:41:17.299Z,11.40
2023-05-10T05:43:44.056Z,11.40
2023-05-10T05:46:10.889Z,11.50
2023-05-10T05:48:37.694Z,11.60
2023-05-10T05:51:07.030Z,11.50
2023-05-10T05:53:34.166Z,11.40
2023-05-10T05:56:00.954Z,11.00
2023-05-10T05:58:27.937Z,11.30
2023-05-10T06:00:55.092Z,11.10
2023-05-10T06:03:22.482Z,11.20
2023-05-10T06:05:49.506Z,11.40
2023-05-10T06:08:16.479Z,11.20
2023-05-10T06:10:43.273Z,11.40
2023-05-10T06:13:10.222Z,11.50
2023-05-10T06:15:37.155Z,11.60
2023-05-10T06:18:04.348Z,11.50
2023-05-10T06:20:32.614Z,11.40
2023-05-10T06:22:59.931Z,11.50
2023-05-10T06:25:26.882Z,11.40
2023-05-10T06:27:58.253Z,11.50
2023-05-10T06:30:29.463Z,11.50
2023-05-10T06:32:56.987Z,11.60
2023-05-10T06:35:24.066Z,11.60
2023-05-10T06:37:51.813Z,11.60
2023-05-10T06:40:19.476Z,11.60
2023-05-10T06:42:46.935Z,11.90
2023-05-10T06:45:15.895Z,11.80
2023-05-10T06:47:43.100Z,11.60
2023-05-10T06:50:10.644Z,11.60
2023-05-10T06:52:37.684Z,11.80
2023-05-10T06:55:05.887Z,11.80
2023-05-10T06:57:33.174Z,12.00
2023-05-10T07:00:00.573Z,12.40
2023-05-10T07:02:27.677Z,12.40
2023-05-10T07:04:55.143Z,12.40
2023-05-10T07:07:22.666Z,12.40
2023-05-10T07:09:50.898Z,12.50
2023-05-10T07:12:17.794Z,12.60
2023-05-10T07:14:44.645Z,12.80
2023-05-10T07:17:11.502Z,12.70
2023-05-10T07:19:38.493Z,12.30
2023-05-10T07:22:05.616Z,12.50
2023-05-10T07:24:34.929Z,12.70
2023-05-10T07:27:01.833Z,12.60
2023-05-10T07:29:29.850Z,12.70
2023-05-10T07:31:58.899Z,12.80
2023-05-10T07:34:26.389Z,12.90
2023-05-10T07:36:53.816Z,13.00
2023-05-10T07:39:27.593Z,13.10
2023-05-10T07:41:55.742Z,13.10
2023-05-10T07:44:22.640Z,13.30
2023-05-10T07:46:49.742Z,13.50
2023-05-10T07:49:16.926Z,13.70
2023-05-10T07:51:43.864Z,13.70
2023-05-10T07:54:10.870Z,12.10
2023-05-10T07:56:37.730Z,13.70
2023-05-10T07:59:07.392Z,13.90
2023-05-10T08:01:35.693Z,13.80
2023-05-10T08:04:03.114Z,13.80
2023-05-10T08:06:31.346Z,14.10
2023-05-10T08:08:58.708Z,14.10
2023-05-10T08:11:26.223Z,14.30
2023-05-10T08:13:54.142Z,14.30
2023-05-10T08:16:21.423Z,14.60
2023-05-10T08:18:48.624Z,14.70
2023-05-10T08:21:16.530Z,14.60
2023-05-10T08:23:45.193Z,14.80
2023-05-10T08:26:13.048Z,14.90
2023-05-10T08:28:39.856Z,15.00
2023-05-10T08:31:06.954Z,15.00
2023-05-10T08:33:33.844Z,15.00
2023-05-10T08:36:00.911Z,15.00
2023-05-10T08:38:27.828Z,15.00
2023-05-10T08:41:00.103Z,15.20
2023-05-10T08:43:31.501Z,15.30
2023-05-10T08:46:03.881Z,15.50
2023-05-10T08:48:32.175Z,15.50
2023-05-10T08:51:01.819Z,15.60
2023-05-10T08:53:32.165Z,15.60
2023-05-10T08:55:59.742Z,15.70
2023-05-10T08:58:26.880Z,15.80
2023-05-10T09:00:54.855Z,15.90
2023-05-10T09:03:21.873Z,16.10
2023-05-10T09:05:50.142Z,16.50
2023-05-10T09:08:18.117Z,16.70
2023-05-10T09:10:48.255Z,16.70
2023-05-10T09:13:16.773Z,16.70
2023-05-10T09:15:46.124Z,16.90
2023-05-10T09:18:13.684Z,17.00
2023-05-10T09:20:41.240Z,17.30
2023-05-10T09:23:08.373Z,17.40
2023-05-10T09:25:35.740Z,17.10
2023-05-10T09:28:02.829Z,16.90
2023-05-10T09:30:31.847Z,17.20
2023-05-10T09:33:00.195Z,17.50
2023-05-10T09:35:29.995Z,17.70
2023-05-10T09:37:59.180Z,17.70
2023-05-10T09:40:27.788Z,17.80
2023-05-10T09:43:01.630Z,17.90
2023-05-10T09:45:31.156Z,17.90
2023-05-10T09:47:59.760Z,18.10
2023-05-10T09:50:27.647Z,18.30
2023-05-10T09:53:10.313Z,18.10
2023-05-10T09:55:42.015Z,18.40
2023-05-10T09:58:11.536Z,18.10
2023-05-10T10:00:43.344Z,17.90
2023-05-10T10:03:21.084Z,18.10
2023-05-10T10:05:49.298Z,18.50
2023-05-10T10:08:17.752Z,18.90
2023-05-10T10:10:47.496Z,19.30
2023-05-10T10:13:15.025Z,19.20
2023-05-10T10:15:44.294Z,19.10
2023-05-10T10:18:16.171Z,19.50
2023-05-10T10:20:43.483Z,19.40
2023-05-10T10:23:10.765Z,19.50
2023-05-10T10:25:38.773Z,18.80
2023-05-10T10:28:23.372Z,17.70
2023-05-10T10:30:54.701Z,17.20
2023-05-10T10:33:48.278Z,17.30
2023-05-10T10:36:16.438Z,17.40
2023-05-10T10:38:49.445Z,17.60
2023-05-10T10:41:50.076Z,17.80
2023-05-10T10:44:47.577Z,18.00
2023-05-10T10:47:19.905Z,18.40
2023-05-10T10:49:53.814Z,18.50
2023-05-10T10:52:34.002Z,19.10
2023-05-10T10:55:13.752Z,19.50
2023-05-10T10:57:46.859Z,19.80
2023-05-10T11:00:32.187Z,19.90
2023-05-10T11:03:01.121Z,19.50
2023-05-10T11:05:50.650Z,19.20
2023-05-10T11:08:30.527Z,19.30
2023-05-10T11:11:00.357Z,19.60
2023-05-10T11:13:49.229Z,19.30
2023-05-10T11:16:25.185Z,19.30
2023-05-10T11:18:57.954Z,19.20
2023-05-10T11:21:25.008Z,18.90
2023-05-10T11:23:58.322Z,18.70
2023-05-10T11:26:46.030Z,18.90
2023-05-10T11:29:14.687Z,19.50
2023-05-10T11:31:48.353Z,20.50
2023-05-10T11:34:26.502Z,19.80
2023-05-10T11:36:54.956Z,19.70
2023-05-10T11:39:22.738Z,19.50
2023-05-10T11:41:51.045Z,19.90
2023-05-10T11:44:17.919Z,19.70
2023-05-10T11:46:44.852Z,19.80
2023-05-10T11:49:12.681Z,19.90
2023-05-10T11:51:40.543Z,19.60
2023-05-10T11:54:12.117Z,18.80
2023-05-10T11:56:40.802Z,18.20
2023-05-10T11:59:08.920Z,17.60
2023-05-10T12:01:36.471Z,17.50
2023-05-10T12:04:04.080Z,17.60
2023-05-10T12:06:41.465Z,18.00
2023-05-10T12:09:09.207Z,18.90
2023-05-10T12:11:41.866Z,19.80
2023-05-10T12:14:11.541Z,20.20
2023-05-10T12:16:38.447Z,20.00
2023-05-10T12:19:06.408Z,19.90
2023-05-10T12:21:34.517Z,20.20
2023-05-10T12:24:04.312Z,21.30
2023-05-10T12:26:36.039Z,20.40
2023-05-10T12:29:20.151Z,20.20
2023-05-10T12:31:54.330Z,20.30
2023-05-10T12:34:38.152Z,19.80
2023-05-10T12:37:05.267Z,19.40
2023-05-10T12:39:47.066Z,20.00
2023-05-10T12:42:14.123Z,19.60
2023-05-10T12:44:41.205Z,19.20
2023-05-10T12:47:08.462Z,19.50
2023-05-10T12:49:35.653Z,19.70
2023-05-10T12:52:02.705Z,19.60
2023-05-10T12:54:29.567Z,19.80
2023-05-10T12:56:56.352Z,20.10
2023-05-10T12:59:23.926Z,19.60
2023-05-10T13:01:50.951Z,19.50
2023-05-10T13:04:17.832Z,19.20
2023-05-10T13:06:44.663Z,19.80
2023-05-10T13:09:11.493Z,20.10
2023-05-10T13:11:38.522Z,20.20
2023-05-10T13:14:05.767Z,20.20
2023-05-10T13:16:41.642Z,19.90
2023-05-10T13:19:08.597Z,19.50
2023-05-10T13:21:35.699Z,19.10
2023-05-10T13:24:02.905Z,19.20
2023-05-10T13:26:30.049Z,19.20
2023-05-10T13:28:56.928Z,19.50
2023-05-10T13:31:23.762Z,19.70
2023-05-10T13:33:50.526Z,19.60
2023-05-10T13:36:17.373Z,19.70
2023-05-10T13:38:44.161Z,20.30
2023-05-10T13:41:11.897Z,20.70
2023-05-10T13:43:38.768Z,20.80
2023-05-10T13:46:05.793Z,20.40
2023-05-10T13:48:32.774Z,21.30
2023-05-10T13:50:59.795Z,22.20
2023-05-10T13:53:26.833Z,23.60
2023-05-10T13:55:53.574Z,23.00
2023-05-10T13:58:20.394Z,22.50
2023-05-10T14:00:47.176Z,21.60
2023-05-10T14:03:14.035Z,23.50
2023-05-10T14:05:40.836Z,23.80
2023-05-10T14:08:08.503Z,23.90
2023-05-10T14:10:35.290Z,23.70
2023-05-10T14:13:02.238Z,22.70
2023-05-10T14:15:29.024Z,22.30
2023-05-10T14:17:55.885Z,22.00
2023-05-10T14:20:22.680Z,21.50
2023-05-10T14:22:49.550Z,20.90
2023-05-10T14:25:16.558Z,20.90
2023-05-10T14:27:43.594Z,20.50
2023-05-10T14:30:10.888Z,20.60
2023-05-10T14:32:38.371Z,21.30
2023-05-10T14:35:07.266Z,20.90
2023-05-10T14:37:34.471Z,20.10
2023-05-10T14:40:01.524Z,19.90
2023-05-10T14:42:29.828Z,19.60
2023-05-10T14:44:56.676Z,19.60
2023-05-10T14:47:23.600Z,20.00
2023-05-10T14:49:51.878Z,19.80
2023-05-10T14:52:18.754Z,19.90
2023-05-10T14:54:45.548Z,20.20
2023-05-10T14:57:12.319Z,19.80
2023-05-10T14:59:39.149Z,20.60
2023-05-10T15:02:09.331Z,21.90
2023-05-10T15:04:36.608Z,22.90
2023-05-10T15:07:04.146Z,23.60
2023-05-10T15:09:30.959Z,21.90
2023-05-10T15:11:57.884Z,21.80
2023-05-10T15:14:24.743Z,21.40
2023-05-10T15:16:51.542Z,20.30
2023-05-10T15:19:18.321Z,19.20
2023-05-10T15:21:45.621Z,18.40
2023-05-10T15:24:12.917Z,18.50
2023-05-10T15:26:39.715Z,17.60
2023-05-10T15:29:06.749Z,17.20
2023-05-10T15:31:36.201Z,16.50
2023-05-10T15:34:03.201Z,15.90
2023-05-10T15:36:29.981Z,15.70
2023-05-10T15:38:56.902Z,15.70
2023-05-10T15:41:24.515Z,15.90
2023-05-10T15:43:51.415Z,15.90
2023-05-10T15:46:18.246Z,16.30
2023-05-10T15:48:44.987Z,15.80
2023-05-10T15:51:11.720Z,15.70
2023-05-10T15:53:40.982Z,16.00
2023-05-10T15:56:11.408Z,16.00
2023-05-10T15:58:41.790Z,15.80
2023-05-10T16:01:08.642Z,15.90
2023-05-10T16:03:37.520Z,15.60
2023-05-10T16:06:04.909Z,15.50
2023-05-10T16:08:33.539Z,16.20
2023-05-10T16:11:00.901Z,16.60
2023-05-10T16:13:28.607Z,17.20
2023-05-10T16:15:55.510Z,18.00
2023-05-10T16:18:22.519Z,18.30
2023-05-10T16:20:49.546Z,19.10
2023-05-10T16:23:16.391Z,20.40
2023-05-10T16:25:43.168Z,21.00
2023-05-10T16:28:09.898Z,20.70
2023-05-10T16:30:36.747Z,20.70
2023-05-10T16:33:03.896Z,21.10
2023-05-10T16:35:30.851Z,20.80
2023-05-10T16:37:57.762Z,20.60
2023-05-10T16:40:24.519Z,20.10
2023-05-10T16:42:51.423Z,18.90
2023-05-10T16:45:18.493Z,17.50
2023-05-10T16:47:45.438Z,17.30
2023-05-10T16:50:12.564Z,15.60
2023-05-10T16:52:39.405Z,15.40
2023-05-10T16:55:06.609Z,15.30
2023-05-10T16:57:33.416Z,15.20
2023-05-10T17:00:00.255Z,15.00
2023-05-10T17:02:27.370Z,15.10
2023-05-10T17:04:56.119Z,15.20
2023-05-10T17:07:25.985Z,15.40
2023-05-10T17:09:53.180Z,15.30
2023-05-10T17:12:19.971Z,15.60
2023-05-10T17:14:47.349Z,15.80
2023-05-10T17:17:14.203Z,15.90
2023-05-10T17:19:44.802Z,16.00
2023-05-10T17:22:13.740Z,16.30
2023-05-10T17:24:40.704Z,16.20
2023-05-10T17:27:07.472Z,16.20
2023-05-10T17:29:34.302Z,16.40
2023-05-10T17:32:01.231Z,16.50
2023-05-10T17:34:28.067Z,15.90
2023-05-10T17:36:55.193Z,16.30
2023-05-10T17:39:21.933Z,16.20
2023-05-10T17:41:48.790Z,16.40
2023-05-10T17:44:16.065Z,16.50
2023-05-10T17:46:43.559Z,16.50
2023-05-10T17:49:10.776Z,16.70
2023-05-10T17:51:37.941Z,17.60
2023-05-10T17:54:05.006Z,18.40
2023-05-10T17:56:31.801Z,18.40
2023-05-10T17:58:58.684Z,18.60
2023-05-10T18:01:25.529Z,18.20
2023-05-10T18:03:52.933Z,17.70
2023-05-10T18:06:19.737Z,18.00
2023-05-10T18:08:46.522Z,16.70
2023-05-10T18:11:13.370Z,17.20
2023-05-10T18:13:40.226Z,17.10
2023-05-10T18:16:08.863Z,17.30
2023-05-10T18:18:35.789Z,16.90
2023-05-10T18:21:03.710Z,16.90
2023-05-10T18:23:30.585Z,17.10
2023-05-10T18:25:58.085Z,17.20
2023-05-10T18:28:25.103Z,17.40
2023-05-10T18:30:52.035Z,17.30
2023-05-10T18:33:19.001Z,17.40
2023-05-10T18:35:46.265Z,17.50
2023-05-10T18:38:13.689Z,17.40
2023-05-10T18:40:41.649Z,17.40
2023-05-10T18:43:08.973Z,17.40
2023-05-10T18:45:35.897Z,17.50
2023-05-10T18:48:02.998Z,17.30
2023-05-10T18:50:29.847Z,17.00
2023-05-10T18:52:56.770Z,17.10
2023-05-10T18:55:25.845Z,17.00
2023-05-10T18:57:52.592Z,17.00
2023-05-10T19:00:20.500Z,17.10
2023-05-10T19:02:47.810Z,16.90
2023-05-10T19:05:15.706Z,16.60
2023-05-10T19:07:44.026Z,16.60
2023-05-10T19:10:14.986Z,16.70
2023-05-10T19:12:41.833Z,16.90
2023-05-10T19:15:09.548Z,17.10
2023-05-10T19:17:36.919Z,17.10
2023-05-10T19:20:06.222Z,18.30
2023-05-10T19:22:47.162Z,17.30
2023-05-10T19:25:22.068Z,17.40
2023-05-10T19:27:48.954Z,17.40
2023-05-10T19:30:15.875Z,17.30
2023-05-10T19:32:44.215Z,17.30
2023-05-10T19:35:13.225Z,17.30
2023-05-10T19:37:40.761Z,17.30
2023-05-10T19:40:08.442Z,17.30
2023-05-10T19:42:35.276Z,17.20
2023-05-10T19:45:02.394Z,17.20
2023-05-10T19:47:29.348Z,17.30
2023-05-10T19:49:56.281Z,17.30
2023-05-10T19:52:23.231Z,17.30
2023-05-10T19:54:49.993Z,17.30
2023-05-10T19:57:16.820Z,17.30
2023-05-10T19:59:43.576Z,17.30
2023-05-10T20:02:10.293Z,17.30
2023-05-10T20:04:37.035Z,17.30
2023-05-10T20:07:03.728Z,17.30
2023-05-10T20:09:30.685Z,17.30
2023-05-10T20:11:57.713Z,17.20
2023-05-10T20:14:24.695Z,17.20
2023-05-10T20:16:51.701Z,17.20
2023-05-10T20:19:18.700Z,17.30
2023-05-10T20:21:45.516Z,17.10
2023-05-10T20:24:12.412Z,16.90
2023-05-10T20:26:39.168Z,16.80
2023-05-10T20:29:06.029Z,16.70
2023-05-10T20:31:32.974Z,16.70
2023-05-10T20:34:01.161Z,16.60
2023-05-10T20:36:28.922Z,16.60
2023-05-10T20:38:55.782Z,16.50
2023-05-10T20:41:22.756Z,16.30
2023-05-10T20:43:49.593Z,16.20
2023-05-10T20:46:17.275Z,16.30
2023-05-10T20:48:44.052Z,16.20
2023-05-10T20:51:10.887Z,16.10
2023-05-10T20:53:37.860Z,16.10
2023-05-10T20:56:04.946Z,16.10
2023-05-10T20:58:31.832Z,15.90
2023-05-10T21:00:58.642Z,15.90
2023-05-10T21:03:25.485Z,15.90
2023-05-10T21:05:52.369Z,15.70
2023-05-10T21:08:19.212Z,15.60
2023-05-10T21:10:46.158Z,15.60
2023-05-10T21:13:13.101Z,15.50
2023-05-10T21:15:39.895Z,15.20
2023-05-10T21:18:06.875Z,15.40
2023-05-10T21:20:33.707Z,15.30
2023-05-10T21:23:00.420Z,15.00
2023-05-10T21:25:27.283Z,15.10
2023-05-10T21:27:54.209Z,14.80
2023-05-10T21:30:21.055Z,16.00
2023-05-10T21:32:47.808Z,15.00
2023-05-10T21:35:14.626Z,14.90
2023-05-10T21:37:41.570Z,15.00
2023-05-10T21:40:09.108Z,15.00
2023-05-10T21:42:35.872Z,15.20
2023-05-10T21:45:02.617Z,15.30
2023-05-10T21:47:29.523Z,15.40
2023-05-10T21:49:56.273Z,15.20
2023-05-10T21:52:23.089Z,15.10
2023-05-10T21:54:49.845Z,15.20
2023-05-10T21:57:16.660Z,15.20
2023-05-10T21:59:43.482Z,15.00
2023-05-10T22:02:10.490Z,14.80
2023-05-10T22:04:37.298Z,14.90
2023-05-10T22:07:04.432Z,15.00
2023-05-10T22:09:31.820Z,15.00
2023-05-10T22:12:01.701Z,16.30
2023-05-10T22:14:28.834Z,15.70
2023-05-10T22:16:55.810Z,15.00
2023-05-10T22:19:22.632Z,15.00
2023-05-10T22:21:49.410Z,15.00
2023-05-10T22:24:16.284Z,15.10
2023-05-10T22:26:42.990Z,15.10
2023-05-10T22:29:09.805Z,15.10
2023-05-10T22:31:36.585Z,15.00
2023-05-10T22:34:03.727Z,15.00
2023-05-10T22:36:30.748Z,15.20
2023-05-10T22:38:57.490Z,15.10
2023-05-10T22:41:24.360Z,16.40
2023-05-10T22:43:51.161Z,15.10
2023-05-10T22:46:18.015Z,15.20
2023-05-10T22:48:44.849Z,15.30
2023-05-10T22:51:12.054Z,15.30
2023-05-10T22:53:38.864Z,15.20
2023-05-10T22:56:06.798Z,15.40
2023-05-10T22:58:33.953Z,15.40
2023-05-10T23:01:00.904Z,15.40
2023-05-10T23:03:27.927Z,15.30
2023-05-10T23:05:54.687Z,15.30
2023-05-10T23:08:22.350Z,15.30
2023-05-10T23:10:49.148Z,15.30
2023-05-10T23:13:15.931Z,15.20
2023-05-10T23:15:43.590Z,15.10
2023-05-10T23:18:10.506Z,15.10
2023-05-10T23:20:37.356Z,14.80
2023-05-10T23:23:04.145Z,14.50
2023-05-10T23:25:30.926Z,14.30
2023-05-10T23:27:57.689Z,14.40
2023-05-10T23:30:24.463Z,14.30
2023-05-10T23:32:51.297Z,14.30
2023-05-10T23:35:18.197Z,14.30
2023-05-10T23:37:44.968Z,14.20
2023-05-10T23:40:13.508Z,14.10
2023-05-10T23:42:40.426Z,14.00
2023-05-10T23:45:07.602Z,14.10
2023-05-10T23:47:34.550Z,12.80
2023-05-10T23:50:01.521Z,13.90
2023-05-10T23:52:28.277Z,13.90
2023-05-10T23:54:55.009Z,14.00
2023-05-10T23:57:21.921Z,14.10
2023-05-10T23:59:48.661Z,13.90
